sensor_id;sensor_type;location;lat;lon;timestamp;temperature;humidity
51021;DHT22;38907;45.562;8.856;2023-05-10T00:04:42;15.50;99.90
51021;DHT22;38907;45.562;8.856;2023-05-10T00:09:44;15.30;99.90
51021;DHT22;38907;45.562;8.856;2023-05-10T00:14:47;15.30;99.90
51021;DHT22;38907;45.562;8.856;2023-05-10T00:19:49;15.30;99.90
51021;DHT22;38907;45.562;8.856;2023-05-10T00:24:51;15.30;99.90
51021;DHT22;38907;45.562;8.856;2023-05-10T00:29:54;15.30;99.90
51021;DHT22;38907;45.562;8.856;2023-05-10T00:34:55;15.30;99.90
51021;DHT22;38907;45.562;8.856;2023-05-10T00:39:57;15.40;99.90
51021;DHT22;38907;45.562;8.856;2023-05-10T00:45:01;15.30;99.90
51021;DHT22;38907;45.562;8.856;2023-05-10T00:50:03;15.30;99.90
51021;DHT22;38907;45.562;8.856;2023-05-10T00:55:07;15.30;99.90
51021;DHT22;38907;45.562;8.856;2023-05-10T01:00:12;15.20;99.90
51021;DHT22;38907;45.562;8.856;2023-05-10T01:05:18;15.20;99.90
51021;DHT22;38907;45.562;8.856;2023-05-10T01:10:20;15.10;99.90
51021;DHT22;38907;45.562;8.856;2023-05-10T01:15:24;15.10;99.90
51021;DHT22;38907;45.562;8.856;2023-05-10T01:20:29;15.00;99.90
51021;DHT22;38907;45.562;8.856;2023-05-10T01:25:55;15.00;99.90
51021;DHT22;38907;45.562;8.856;2023-05-10T01:31:14;15.10;99.90
51021;DHT22;38907;45.562;8.856;2023-05-10T01:36:24;15.00;99.90
51021;DHT22;38907;45.562;8.856;2023-05-10T01:41:32;14.90;99.90
51021;DHT22;38907;45.562;8.856;2023-05-10T01:46:37;14.80;99.90
51021;DHT22;38907;45.562;8.856;2023-05-10T01:51:45;14.90;99.90
51021;DHT22;38907;45.562;8.856;2023-05-10T01:56:52;14.90;99.90
51021;DHT22;38907;45.562;8.856;2023-05-10T02:01:57;15.00;99.90
51021;DHT22;38907;45.562;8.856;2023-05-10T02:07:02;14.70;99.90
51021;DHT22;38907;45.562;8.856;2023-05-10T02:12:05;14.80;99.90
51021;DHT22;38907;45.562;8.856;2023-05-10T02:17:09;14.60;99.90
51021;DHT22;38907;45.562;8.856;2023-05-10T02:22:12;14.60;99.90
51021;DHT22;38907;45.562;8.856;2023-05-10T02:27:15;14.50;99.90
51021;DHT22;38907;45.562;8.856;2023-05-10T02:32:19;14.40;99.90
51021;DHT22;38907;45.562;8.856;2023-05-10T02:37:22;14.20;99.90
51021;DHT22;38907;45.562;8.856;2023-05-10T02:42:27;14.20;99.90
51021;DHT22;38907;45.562;8.856;2023-05-10T02:47:29;14.10;99.90
51021;DHT22;38907;45.562;8.856;2023-05-10T02:52:39;14.20;99.90
51021;DHT22;38907;45.562;8.856;2023-05-10T02:57:45;14.40;99.90
51021;DHT22;38907;45.562;8.856;2023-05-10T03:02:48;14.30;99.90
51021;DHT22;38907;45.562;8.856;2023-05-10T03:07:52;14.10;99.90
51021;DHT22;38907;45.562;8.856;2023-05-10T03:13:06;14.10;99.90
51021;DHT22;38907;45.562;8.856;2023-05-10T03:18:11;14.10;99.90
51021;DHT22;38907;45.562;8.856;2023-05-10T03:23:24;14.00;99.90
51021;DHT22;38907;45.562;8.856;2023-05-10T03:28:28;14.00;99.90
51021;DHT22;38907;45.562;8.856;2023-05-10T03:33:31;14.00;99.90
51021;DHT22;38907;45.562;8.856;2023-05-10T03:38:34;14.10;99.90
51021;DHT22;38907;45.562;8.856;2023-05-10T03:43:36;14.10;99.90
51021;DHT22;38907;45.562;8.856;2023-05-10T03:48:39;14.10;99.90
51021;DHT22;38907;45.562;8.856;2023-05-10T03:53:42;14.10;99.90
51021;DHT22;38907;45.562;8.856;2023-05-10T03:58:44;14.20;99.90
51021;DHT22;38907;45.562;8.856;2023-05-10T04:03:45;14.10;99.90
51021;DHT22;38907;45.562;8.856;2023-05-10T04:08:49;14.10;99.90
51021;DHT22;38907;45.562;8.856;2023-05-10T04:13:51;14.10;99.90
51021;DHT22;38907;45.562;8.856;2023-05-10T04:18:52;14.10;99.90
51021;DHT22;38907;45.562;8.856;2023-05-10T04:23:56;14.00;99.90
51021;DHT22;38907;45.562;8.856;2023-05-10T04:28:57;13.90;99.90
51021;DHT22;38907;45.562;8.856;2023-05-10T04:33:59;14.00;99.90
51021;DHT22;38907;45.562;8.856;2023-05-10T04:39:03;13.90;99.90
51021;DHT22;38907;45.562;8.856;2023-05-10T04:44:05;14.20;99.90
51021;DHT22;38907;45.562;8.856;2023-05-10T04:49:07;14.10;99.90
51021;DHT22;38907;45.562;8.856;2023-05-10T04:54:10;14.00;99.90
51021;DHT22;38907;45.562;8.856;2023-05-10T04:59:12;14.20;99.90
51021;DHT22;38907;45.562;8.856;2023-05-10T05:04:14;14.00;99.90
51021;DHT22;38907;45.562;8.856;2023-05-10T05:09:17;14.00;99.90
51021;DHT22;38907;45.562;8.856;2023-05-10T05:14:19;14.10;99.90
51021;DHT22;38907;45.562;8.856;2023-05-10T05:19:22;14.20;99.90
51021;DHT22;38907;45.562;8.856;2023-05-10T05:24:25;14.20;99.90
51021;DHT22;38907;45.562;8.856;2023-05-10T05:29:27;14.10;99.90
51021;DHT22;38907;45.562;8.856;2023-05-10T05:34:29;14.10;99.90
51021;DHT22;38907;45.562;8.856;2023-05-10T05:39:32;14.20;99.90
51021;DHT22;38907;45.562;8.856;2023-05-10T05:44:34;14.20;99.90
51021;DHT22;38907;45.562;8.856;2023-05-10T05:49:36;14.10;99.90
51021;DHT22;38907;45.562;8.856;2023-05-10T05:54:39;14.20;99.90
51021;DHT22;38907;45.562;8.856;2023-05-10T05:59:41;14.30;99.90
51021;DHT22;38907;45.562;8.856;2023-05-10T06:04:44;14.30;99.90
51021;DHT22;38907;45.562;8.856;2023-05-10T06:09:48;14.50;99.90
51021;DHT22;38907;45.562;8.856;2023-05-10T06:14:49;14.40;99.90
51021;DHT22;38907;45.562;8.856;2023-05-10T06:19:51;14.30;99.90
51021;DHT22;38907;45.562;8.856;2023-05-10T06:24:54;14.30;99.90
51021;DHT22;38907;45.562;8.856;2023-05-10T06:29:56;14.30;99.90
51021;DHT22;38907;45.562;8.856;2023-05-10T06:34:58;14.30;99.90
51021;DHT22;38907;45.562;8.856;2023-05-10T06:40:01;14.20;99.90
51021;DHT22;38907;45.562;8.856;2023-05-10T06:45:04;14.30;99.90
51021;DHT22;38907;45.562;8.856;2023-05-10T06:50:07;14.20;99.90
51021;DHT22;38907;45.562;8.856;2023-05-10T06:55:10;14.30;99.90
51021;DHT22;38907;45.562;8.856;2023-05-10T07:00:13;14.50;99.90
51021;DHT22;38907;45.562;8.856;2023-05-10T07:05:16;14.50;99.90
51021;DHT22;38907;45.562;8.856;2023-05-10T07:10:19;14.60;99.90
51021;DHT22;38907;45.562;8.856;2023-05-10T07:15:21;14.50;99.90
51021;DHT22;38907;45.562;8.856;2023-05-10T07:20:23;14.80;99.90
51021;DHT22;38907;45.562;8.856;2023-05-10T07:25:26;14.70;99.90
51021;DHT22;38907;45.562;8.856;2023-05-10T07:30:28;14.80;99.90
51021;DHT22;38907;45.562;8.856;2023-05-10T07:35:30;14.70;99.90
51021;DHT22;38907;45.562;8.856;2023-05-10T07:40:33;14.80;99.90
51021;DHT22;38907;45.562;8.856;2023-05-10T07:45:35;14.90;99.90
51021;DHT22;38907;45.562;8.856;2023-05-10T07:50:37;15.00;99.90
51021;DHT22;38907;45.562;8.856;2023-05-10T07:55:40;15.00;99.90
51021;DHT22;38907;45.562;8.856;2023-05-10T08:00:42;15.00;99.90
51021;DHT22;38907;45.562;8.856;2023-05-10T08:05:43;15.10;99.90
51021;DHT22;38907;45.562;8.856;2023-05-10T08:10:47;15.00;99.90
51021;DHT22;38907;45.562;8.856;2023-05-10T08:15:48;15.00;99.90
51021;DHT22;38907;45.562;8.856;2023-05-10T08:20:53;15.10;99.90
51021;DHT22;38907;45.562;8.856;2023-05-10T08:25:56;15.20;99.90
51021;DHT22;38907;45.562;8.856;2023-05-10T08:30:58;15.30;99.90
51021;DHT22;38907;45.562;8.856;2023-05-10T08:36:01;15.30;99.90
51021;DHT22;38907;45.562;8.856;2023-05-10T08:41:05;15.30;99.90
51021;DHT22;38907;45.562;8.856;2023-05-10T08:46:07;15.30;99.90
51021;DHT22;38907;45.562;8.856;2023-05-10T08:51:14;15.40;99.90
51021;DHT22;38907;45.562;8.856;2023-05-10T08:56:18;15.30;99.90
51021;DHT22;38907;45.562;8.856;2023-05-10T09:01:21;15.30;99.90
51021;DHT22;38907;45.562;8.856;2023-05-10T09:06:23;15.20;99.90
51021;DHT22;38907;45.562;8.856;2023-05-10T09:11:27;15.30;99.90
51021;DHT22;38907;45.562;8.856;2023-05-10T09:16:30;15.20;99.90
51021;DHT22;38907;45.562;8.856;2023-05-10T09:21:32;15.40;99.90
51021;DHT22;38907;45.562;8.856;2023-05-10T09:26:45;15.60;99.90
51021;DHT22;38907;45.562;8.856;2023-05-10T09:31:50;15.60;99.90
51021;DHT22;38907;45.562;8.856;2023-05-10T09:36:56;15.70;99.90
51021;DHT22;38907;45.562;8.856;2023-05-10T09:42:01;15.60;99.90
51021;DHT22;38907;45.562;8.856;2023-05-10T09:47:04;15.50;99.90
51021;DHT22;38907;45.562;8.856;2023-05-10T09:52:07;15.60;99.90
51021;DHT22;38907;45.562;8.856;2023-05-10T09:57:19;15.60;99.90
51021;DHT22;38907;45.562;8.856;2023-05-10T10:02:28;15.60;99.90
51021;DHT22;38907;45.562;8.856;2023-05-10T10:07:30;15.50;99.90
51021;DHT22;38907;45.562;8.856;2023-05-10T10:12:34;15.30;99.90
51021;DHT22;38907;45.562;8.856;2023-05-10T10:17:37;15.20;99.90
51021;DHT22;38907;45.562;8.856;2023-05-10T10:22:39;15.20;99.90
51021;DHT22;38907;45.562;8.856;2023-05-10T10:27:49;15.30;99.90
51021;DHT22;38907;45.562;8.856;2023-05-10T10:33:06;15.30;99.90
51021;DHT22;38907;45.562;8.856;2023-05-10T10:38:12;15.20;99.90
51021;DHT22;38907;45.562;8.856;2023-05-10T10:43:23;15.10;99.90
51021;DHT22;38907;45.562;8.856;2023-05-10T10:48:26;15.00;99.90
51021;DHT22;38907;45.562;8.856;2023-05-10T10:53:28;15.10;99.90
51021;DHT22;38907;45.562;8.856;2023-05-10T10:58:31;15.20;99.90
51021;DHT22;38907;45.562;8.856;2023-05-10T11:03:33;15.40;99.90
51021;DHT22;38907;45.562;8.856;2023-05-10T11:08:42;15.60;99.90
51021;DHT22;38907;45.562;8.856;2023-05-10T11:13:47;15.80;99.90
51021;DHT22;38907;45.562;8.856;2023-05-10T11:18:54;15.90;99.90
51021;DHT22;38907;45.562;8.856;2023-05-10T11:23:59;15.80;99.90
51021;DHT22;38907;45.562;8.856;2023-05-10T11:29:02;15.80;99.90
51021;DHT22;38907;45.562;8.856;2023-05-10T11:34:05;16.00;99.90
51021;DHT22;38907;45.562;8.856;2023-05-10T11:39:07;16.10;99.90
51021;DHT22;38907;45.562;8.856;2023-05-10T11:44:11;16.20;99.90
51021;DHT22;38907;45.562;8.856;2023-05-10T11:49:13;16.10;99.90
51021;DHT22;38907;45.562;8.856;2023-05-10T11:54:15;16.20;99.90
51021;DHT22;38907;45.562;8.856;2023-05-10T11:59:18;16.50;99.90
51021;DHT22;38907;45.562;8.856;2023-05-10T12:04:20;16.70;99.90
51021;DHT22;38907;45.562;8.856;2023-05-10T12:09:22;17.00;99.90
51021;DHT22;38907;45.562;8.856;2023-05-10T12:14:25;17.10;99.90
51021;DHT22;38907;45.562;8.856;2023-05-10T12:19:29;17.30;99.90
51021;DHT22;38907;45.562;8.856;2023-05-10T12:24:38;17.30;99.90
51021;DHT22;38907;45.562;8.856;2023-05-10T12:29:43;17.10;99.90
51021;DHT22;38907;45.562;8.856;2023-05-10T12:34:46;17.00;99.90
51021;DHT22;38907;45.562;8.856;2023-05-10T12:39:49;17.20;99.90
51021;DHT22;38907;45.562;8.856;2023-05-10T12:44:56;17.40;99.90
51021;DHT22;38907;45.562;8.856;2023-05-10T12:49:59;17.50;99.90
51021;DHT22;38907;45.562;8.856;2023-05-10T12:55:02;17.70;99.90
51021;DHT22;38907;45.562;8.856;2023-05-10T13:00:07;18.00;99.90
51021;DHT22;38907;45.562;8.856;2023-05-10T13:05:10;17.70;99.90
51021;DHT22;38907;45.562;8.856;2023-05-10T13:10:13;17.90;99.90
51021;DHT22;38907;45.562;8.856;2023-05-10T13:15:17;17.70;99.90
51021;DHT22;38907;45.562;8.856;2023-05-10T13:20:20;17.80;99.90
51021;DHT22;38907;45.562;8.856;2023-05-10T13:25:22;17.70;99.90
51021;DHT22;38907;45.562;8.856;2023-05-10T13:30:26;18.00;99.90
51021;DHT22;38907;45.562;8.856;2023-05-10T13:35:29;18.00;99.90
51021;DHT22;38907;45.562;8.856;2023-05-10T13:40:31;17.90;99.90
51021;DHT22;38907;45.562;8.856;2023-05-10T13:45:34;17.80;99.90
51021;DHT22;38907;45.562;8.856;2023-05-10T13:50:37;18.00;99.90
51021;DHT22;38907;45.562;8.856;2023-05-10T13:55:40;18.20;99.90
51021;DHT22;38907;45.562;8.856;2023-05-10T14:00:45;18.00;99.90
51021;DHT22;38907;45.562;8.856;2023-05-10T14:05:47;17.90;99.90
51021;DHT22;38907;45.562;8.856;2023-05-10T14:10:49;18.30;99.90
51021;DHT22;38907;45.562;8.856;2023-05-10T14:15:55;18.70;99.90
51021;DHT22;38907;45.562;8.856;2023-05-10T14:20:56;18.50;99.90
51021;DHT22;38907;45.562;8.856;2023-05-10T14:25:59;18.30;99.90
51021;DHT22;38907;45.562;8.856;2023-05-10T14:31:02;18.60;99.90
51021;DHT22;38907;45.562;8.856;2023-05-10T14:36:05;18.80;99.90
51021;DHT22;38907;45.562;8.856;2023-05-10T14:41:08;18.80;99.90
51021;DHT22;38907;45.562;8.856;2023-05-10T14:46:15;18.70;99.90
51021;DHT22;38907;45.562;8.856;2023-05-10T14:51:17;18.50;99.90
51021;DHT22;38907;45.562;8.856;2023-05-10T14:56:22;18.50;99.90
51021;DHT22;38907;45.562;8.856;2023-05-10T15:01:25;18.20;99.90
51021;DHT22;38907;45.562;8.856;2023-05-10T15:06:31;18.30;99.90
51021;DHT22;38907;45.562;8.856;2023-05-10T15:11:33;18.30;99.90
51021;DHT22;38907;45.562;8.856;2023-05-10T15:16:38;18.60;99.90
51021;DHT22;38907;45.562;8.856;2023-05-10T15:21:40;18.90;99.90
51021;DHT22;38907;45.562;8.856;2023-05-10T15:26:45;18.80;99.90
51021;DHT22;38907;45.562;8.856;2023-05-10T15:31:49;19.00;99.90
51021;DHT22;38907;45.562;8.856;2023-05-10T15:36:51;18.30;99.90
51021;DHT22;38907;45.562;8.856;2023-05-10T15:41:53;18.10;99.90
51021;DHT22;38907;45.562;8.856;2023-05-10T15:46:56;17.90;99.90
51021;DHT22;38907;45.562;8.856;2023-05-10T15:51:58;18.20;99.90
51021;DHT22;38907;45.562;8.856;2023-05-10T15:57:00;17.90;99.90
51021;DHT22;38907;45.562;8.856;2023-05-10T16:02:03;17.80;99.90
51021;DHT22;38907;45.562;8.856;2023-05-10T16:07:05;17.80;99.90
51021;DHT22;38907;45.562;8.856;2023-05-10T16:12:07;17.70;99.90
51021;DHT22;38907;45.562;8.856;2023-05-10T16:17:10;17.50;99.90
51021;DHT22;38907;45.562;8.856;2023-05-10T16:22:12;17.40;99.90
51021;DHT22;38907;45.562;8.856;2023-05-10T16:27:15;17.40;99.90
51021;DHT22;38907;45.562;8.856;2023-05-10T16:32:19;17.20;99.90
51021;DHT22;38907;45.562;8.856;2023-05-10T16:37:21;17.10;99.90
51021;DHT22;38907;45.562;8.856;2023-05-10T16:42:23;17.00;99.90
51021;DHT22;38907;45.562;8.856;2023-05-10T16:47:26;17.10;99.90
51021;DHT22;38907;45.562;8.856;2023-05-10T16:52:28;17.00;99.90
51021;DHT22;38907;45.562;8.856;2023-05-10T16:57:31;16.90;99.90
51021;DHT22;38907;45.562;8.856;2023-05-10T17:02:34;16.80;99.90
51021;DHT22;38907;45.562;8.856;2023-05-10T17:07:37;16.80;99.90
51021;DHT22;38907;45.562;8.856;2023-05-10T17:12:38;16.70;99.90
51021;DHT22;38907;45.562;8.856;2023-05-10T17:17:42;16.80;99.90
51021;DHT22;38907;45.562;8.856;2023-05-10T17:22:43;16.70;99.90
51021;DHT22;38907;45.562;8.856;2023-05-10T17:27:45;16.70;99.90
51021;DHT22;38907;45.562;8.856;2023-05-10T17:32:49;16.70;99.90
51021;DHT22;38907;45.562;8.856;2023-05-10T17:37:51;16.50;99.90
51021;DHT22;38907;45.562;8.856;2023-05-10T17:42:52;16.50;99.90
51021;DHT22;38907;45.562;8.856;2023-05-10T17:47:56;16.50;99.90
51021;DHT22;38907;45.562;8.856;2023-05-10T17:52:58;16.50;99.90
51021;DHT22;38907;45.562;8.856;2023-05-10T17:58:00;16.50;99.90
51021;DHT22;38907;45.562;8.856;2023-05-10T18:03:04;16.50;99.90
51021;DHT22;38907;45.562;8.856;2023-05-10T18:08:06;16.50;99.90
51021;DHT22;38907;45.562;8.856;2023-05-10T18:13:08;16.60;99.90
51021;DHT22;38907;45.562;8.856;2023-05-10T18:18:11;16.50;99.90
51021;DHT22;38907;45.562;8.856;2023-05-10T18:23:13;16.50;99.90
51021;DHT22;38907;45.562;8.856;2023-05-10T18:28:15;16.50;99.90
51021;DHT22;38907;45.562;8.856;2023-05-10T18:33:18;16.40;99.90
51021;DHT22;38907;45.562;8.856;2023-05-10T18:38:20;16.30;99.90
51021;DHT22;38907;45.562;8.856;2023-05-10T18:43:22;16.20;99.90
51021;DHT22;38907;45.562;8.856;2023-05-10T18:48:25;16.30;99.90
51021;DHT22;38907;45.562;8.856;2023-05-10T18:53:27;16.30;99.90
51021;DHT22;38907;45.562;8.856;2023-05-10T18:58:29;16.00;99.90
51021;DHT22;38907;45.562;8.856;2023-05-10T19:03:33;16.00;99.90
51021;DHT22;38907;45.562;8.856;2023-05-10T19:08:35;16.10;99.90
51021;DHT22;38907;45.562;8.856;2023-05-10T19:13:38;15.90;99.90
51021;DHT22;38907;45.562;8.856;2023-05-10T19:18:41;16.00;99.90
51021;DHT22;38907;45.562;8.856;2023-05-10T19:23:43;16.10;99.90
51021;DHT22;38907;45.562;8.856;2023-05-10T19:28:45;15.90;99.90
51021;DHT22;38907;45.562;8.856;2023-05-10T19:33:48;15.80;99.90
51021;DHT22;38907;45.562;8.856;2023-05-10T19:38:50;15.80;99.90
51021;DHT22;38907;45.562;8.856;2023-05-10T19:43:52;15.50;99.90
51021;DHT22;38907;45.562;8.856;2023-05-10T19:48:55;15.60;99.90
51021;DHT22;38907;45.562;8.856;2023-05-10T19:53:57;15.70;99.90
51021;DHT22;38907;45.562;8.856;2023-05-10T19:58:59;15.70;99.90
51021;DHT22;38907;45.562;8.856;2023-05-10T20:04:04;15.70;99.90
51021;DHT22;38907;45.562;8.856;2023-05-10T20:09:06;15.70;99.90
51021;DHT22;38907;45.562;8.856;2023-05-10T20:14:08;15.70;99.90
51021;DHT22;38907;45.562;8.856;2023-05-10T20:19:11;15.50;99.90
51021;DHT22;38907;45.562;8.856;2023-05-10T20:24:13;15.50;99.90
51021;DHT22;38907;45.562;8.856;2023-05-10T20:29:14;15.20;99.90
51021;DHT22;38907;45.562;8.856;2023-05-10T20:34:18;15.30;99.90
51021;DHT22;38907;45.562;8.856;2023-05-10T20:39:22;15.40;99.90
51021;DHT22;38907;45.562;8.856;2023-05-10T20:44:24;15.50;99.90
51021;DHT22;38907;45.562;8.856;2023-05-10T20:49:27;15.50;99.90
51021;DHT22;38907;45.562;8.856;2023-05-10T20:54:29;15.50;99.90
51021;DHT22;38907;45.562;8.856;2023-05-10T20:59:31;15.40;99.90
51021;DHT22;38907;45.562;8.856;2023-05-10T21:04:34;15.40;99.90
51021;DHT22;38907;45.562;8.856;2023-05-10T21:09:36;15.30;99.90
51021;DHT22;38907;45.562;8.856;2023-05-10T21:14:38;15.30;99.90
51021;DHT22;38907;45.562;8.856;2023-05-10T21:19:41;15.10;99.90
51021;DHT22;38907;45.562;8.856;2023-05-10T21:24:43;15.00;99.90
51021;DHT22;38907;45.562;8.856;2023-05-10T21:29:45;15.10;99.90
51021;DHT22;38907;45.562;8.856;2023-05-10T21:34:48;14.90;99.90
51021;DHT22;38907;45.562;8.856;2023-05-10T21:39:50;14.80;99.90
51021;DHT22;38907;45.562;8.856;2023-05-10T21:44:52;14.90;99.90
51021;DHT22;38907;45.562;8.856;2023-05-10T21:49:55;15.00;99.90
51021;DHT22;38907;45.562;8.856;2023-05-10T21:54:57;15.00;99.90
51021;DHT22;38907;45.562;8.856;2023-05-10T21:59:59;14.90;99.90
51021;DHT22;38907;45.562;8.856;2023-05-10T22:05:02;14.90;99.90
51021;DHT22;38907;45.562;8.856;2023-05-10T22:10:05;14.90;99.90
51021;DHT22;38907;45.562;8.856;2023-05-10T22:15:08;15.10;99.90
51021;DHT22;38907;45.562;8.856;2023-05-10T22:20:11;15.10;99.90
51021;DHT22;38907;45.562;8.856;2023-05-10T22:25:13;14.80;99.90
51021;DHT22;38907;45.562;8.856;2023-05-10T22:30:16;14.80;99.90
51021;DHT22;38907;45.562;8.856;2023-05-10T22:35:20;14.80;99.90
51021;DHT22;38907;45.562;8.856;2023-05-10T22:40:22;14.80;99.90
51021;DHT22;38907;45.562;8.856;2023-05-10T22:45:24;14.80;99.90
51021;DHT22;38907;45.562;8.856;2023-05-10T22:50:28;14.90;99.90
51021;DHT22;38907;45.562;8.856;2023-05-10T22:55:30;15.10;99.90
51021;DHT22;38907;45.562;8.856;2023-05-10T23:00:32;15.10;99.90
51021;DHT22;38907;45.562;8.856;2023-05-10T23:05:36;15.20;99.90
51021;DHT22;38907;45.562;8.856;2023-05-10T23:10:37;15.10;99.90
51021;DHT22;38907;45.562;8.856;2023-05-10T23:15:39;15.00;99.90
51021;DHT22;38907;45.562;8.856;2023-05-10T23:20:44;15.10;99.90
51021;DHT22;38907;45.562;8.856;2023-05-10T23:25:46;15.10;99.90
51021;DHT22;38907;45.562;8.856;2023-05-10T23:30:53;15.20;99.90
51021;DHT22;38907;45.562;8.856;2023-05-10T23:35:56;15.20;99.90
51021;DHT22;38907;45.562;8.856;2023-05-10T23:40:58;15.20;99.90
51021;DHT22;38907;45.562;8.856;2023-05-10T23:46:00;15.20;99.90
51021;DHT22;38907;45.562;8.856;2023-05-10T23:51:03;15.10;99.90
51021;DHT22;38907;45.562;8.856;2023-05-10T23:56:05;14.90;99.90
